Time;durP1;ratioP1;P1;durP2;ratioP2;P2;SDS_P1;SDS_P2;PMS_P1;PMS_P2;Temp;Humidity;BMP_temperature;BMP_pressure;BME280_temperature;BME280_humidity;BME280_pressure;Samples;Min_cycle;Max_cycle;Signal;HPM_P1;HPM_P2
2023/10/31 00:02:14;;;;;;;20.63;14.70;;;15.30;67.50;;;;;;5030946;28;20210;-77
2023/10/31 00:04:39;;;;;;;22.97;14.43;;;15.30;67.50;;;;;;5031787;28;20203;-77
2023/10/31 00:07:05;;;;;;;21.73;15.90;;;15.30;67.50;;;;;;5034045;28;20177;-77
2023/10/31 00:09:31;;;;;;;24.77;15.80;;;15.30;67.60;;;;;;5030695;28;20194;-77
2023/10/31 00:11:57;;;;;;;21.43;14.43;;;15.30;67.60;;;;;;5030725;28;20249;-77
2023/10/31 00:14:22;;;;;;;19.00;15.50;;;15.30;67.70;;;;;;5032793;28;20220;-77
2023/10/31 00:16:48;;;;;;;21.50;15.33;;;15.30;67.70;;;;;;5030589;28;20281;-77
2023/10/31 00:19:14;;;;;;;21.57;16.73;;;15.30;67.70;;;;;;5034010;28;20225;-77
2023/10/31 00:21:40;;;;;;;28.67;15.50;;;15.30;67.80;;;;;;5030634;28;20599;-78
2023/10/31 00:24:05;;;;;;;20.40;15.93;;;15.30;67.80;;;;;;5030614;28;20572;-77
2023/10/31 00:26:31;;;;;;;23.37;15.43;;;15.30;67.70;;;;;;5029425;28;20590;-77
2023/10/31 00:28:57;;;;;;;22.63;15.57;;;15.30;67.70;;;;;;5030547;28;20187;-77
2023/10/31 00:31:22;;;;;;;24.33;16.10;;;15.30;67.80;;;;;;5016729;28;20605;-77
2023/10/31 00:33:48;;;;;;;25.33;16.00;;;15.30;67.80;;;;;;5030972;28;20174;-77
2023/10/31 00:36:13;;;;;;;19.30;14.80;;;15.20;67.80;;;;;;5016079;28;20511;-78
2023/10/31 00:38:39;;;;;;;25.00;16.00;;;15.30;67.90;;;;;;5030101;28;20210;-77
2023/10/31 00:41:05;;;;;;;23.60;15.47;;;15.20;67.90;;;;;;5015441;28;20638;-77
2023/10/31 00:43:30;;;;;;;25.90;15.10;;;15.20;68.00;;;;;;5031323;28;20206;-77
2023/10/31 00:45:56;;;;;;;22.17;15.90;;;15.20;68.00;;;;;;5033618;28;20178;-77
2023/10/31 00:48:22;;;;;;;23.70;14.03;;;15.30;68.00;;;;;;5015808;28;20767;-77
2023/10/31 00:50:47;;;;;;;18.00;13.60;;;15.30;68.00;;;;;;5014682;28;20919;-77
2023/10/31 00:53:14;;;;;;;19.87;14.17;;;15.30;67.90;;;;;;5029733;28;20191;-77
2023/10/31 00:55:40;;;;;;;18.80;14.60;;;15.30;67.90;;;;;;5031776;28;20170;-77
2023/10/31 00:58:06;;;;;;;21.60;15.33;;;15.30;67.80;;;;;;5031659;28;20174;-77
2023/10/31 01:00:33;;;;;;;23.63;15.07;;;15.20;68.40;;;;;;5025317;28;20197;-78
2023/10/31 01:02:59;;;;;;;20.83;14.00;;;15.20;67.60;;;;;;5029919;28;20550;-77
2023/10/31 01:05:25;;;;;;;19.40;13.40;;;15.20;67.60;;;;;;5029798;28;20187;-77
2023/10/31 01:07:50;;;;;;;20.43;14.53;;;15.20;67.60;;;;;;5030759;28;20179;-77
2023/10/31 01:10:19;;;;;;;20.47;14.27;;;15.20;67.60;;;;;;5032503;28;20177;-77
2023/10/31 01:12:44;;;;;;;19.90;14.17;;;15.20;67.70;;;;;;5029258;28;20294;-77
2023/10/31 01:15:10;;;;;;;21.47;14.90;;;15.10;67.60;;;;;;5029949;28;20178;-77
2023/10/31 01:17:36;;;;;;;21.63;15.80;;;15.10;67.90;;;;;;5028595;28;20627;-77
2023/10/31 01:20:01;;;;;;;19.27;13.43;;;15.10;68.00;;;;;;5030551;28;20621;-77
2023/10/31 01:22:27;;;;;;;19.30;15.57;;;15.10;68.00;;;;;;5032613;28;20202;-78
2023/10/31 01:24:52;;;;;;;21.33;14.17;;;15.10;68.00;;;;;;5030858;28;20236;-77
2023/10/31 01:27:18;;;;;;;18.17;13.93;;;15.10;68.00;;;;;;5031018;28;20771;-77
2023/10/31 01:29:44;;;;;;;21.87;14.97;;;15.00;68.10;;;;;;5029298;28;20228;-77
2023/10/31 01:32:09;;;;;;;19.27;14.43;;;15.10;68.50;;;;;;5031031;28;20288;-77
2023/10/31 01:34:35;;;;;;;20.90;14.10;;;15.10;68.60;;;;;;5032521;28;20170;-77
2023/10/31 01:37:00;;;;;;;21.97;14.33;;;15.10;68.70;;;;;;5011758;28;20185;-78
2023/10/31 01:39:26;;;;;;;18.13;13.20;;;15.10;68.80;;;;;;5031104;28;20232;-77
2023/10/31 01:41:54;;;;;;;22.03;12.50;;;15.10;68.80;;;;;;5029326;28;20209;-77
2023/10/31 01:44:20;;;;;;;17.27;14.17;;;15.20;68.90;;;;;;5012743;28;20240;-78
2023/10/31 01:46:46;;;;;;;15.33;12.57;;;15.20;68.60;;;;;;5031066;28;20651;-77
2023/10/31 01:49:11;;;;;;;15.00;12.53;;;15.10;69.30;;;;;;5030638;28;20510;-78
2023/10/31 01:51:37;;;;;;;20.60;12.97;;;15.10;68.80;;;;;;5014450;28;20304;-77
2023/10/31 01:54:03;;;;;;;18.10;13.77;;;15.20;69.60;;;;;;5014609;28;20628;-77
2023/10/31 01:56:29;;;;;;;20.47;13.47;;;15.20;68.70;;;;;;5013654;28;20628;-77
2023/10/31 01:58:55;;;;;;;22.87;13.53;;;15.20;68.80;;;;;;5029961;28;20197;-77
2023/10/31 02:01:21;;;;;;;18.50;12.47;;;15.20;68.80;;;;;;5031505;28;20167;-77
2023/10/31 02:03:47;;;;;;;23.63;13.60;;;15.10;68.90;;;;;;5014206;28;20285;-77
2023/10/31 02:06:13;;;;;;;18.37;12.63;;;15.20;69.20;;;;;;5014096;28;20278;-77
2023/10/31 02:08:39;;;;;;;21.63;13.67;;;15.20;69.00;;;;;;5011147;28;20740;-77
2023/10/31 02:11:05;;;;;;;18.13;12.90;;;15.20;69.10;;;;;;5013736;28;20186;-77
2023/10/31 02:13:31;;;;;;;17.97;13.37;;;15.20;69.00;;;;;;5013611;28;20249;-77
2023/10/31 02:15:56;;;;;;;17.77;12.00;;;15.10;69.00;;;;;;5027929;28;20259;-77
2023/10/31 02:18:22;;;;;;;17.00;12.80;;;15.10;69.30;;;;;;5028855;28;20655;-77
2023/10/31 02:20:48;;;;;;;14.07;11.53;;;15.10;69.40;;;;;;5028376;28;20178;-77
2023/10/31 02:23:17;;;;;;;17.33;11.63;;;15.10;69.40;;;;;;5027391;28;20217;-77
2023/10/31 02:25:42;;;;;;;20.50;12.83;;;15.10;69.50;;;;;;5013600;28;20175;-77
2023/10/31 02:28:08;;;;;;;22.73;13.83;;;15.20;69.60;;;;;;5013759;28;20237;-77
2023/10/31 02:30:34;;;;;;;14.67;11.87;;;15.20;69.50;;;;;;5013952;28;20179;-77
2023/10/31 02:33:01;;;;;;;17.10;12.13;;;15.20;69.70;;;;;;5028102;28;20178;-78
2023/10/31 02:35:27;;;;;;;15.87;12.40;;;15.20;69.70;;;;;;5012636;28;20779;-77
2023/10/31 02:37:53;;;;;;;17.47;12.80;;;15.30;69.70;;;;;;5030663;28;20198;-77
2023/10/31 02:40:19;;;;;;;17.80;11.67;;;15.30;69.70;;;;;;5014572;28;20170;-77
2023/10/31 02:42:44;;;;;;;19.23;11.87;;;15.30;69.90;;;;;;5029048;28;20198;-77
2023/10/31 02:45:10;;;;;;;16.73;12.03;;;15.50;70.10;;;;;;5028493;28;20632;-77
2023/10/31 02:47:36;;;;;;;16.90;11.60;;;15.40;69.70;;;;;;5027903;28;20667;-77
2023/10/31 02:50:01;;;;;;;17.50;11.97;;;15.40;69.80;;;;;;5029124;28;20218;-78
2023/10/31 02:52:27;;;;;;;17.47;11.50;;;15.40;69.90;;;;;;5030683;28;20205;-78
2023/10/31 02:54:53;;;;;;;14.33;11.13;;;15.40;70.00;;;;;;5027903;28;20194;-77
2023/10/31 02:57:18;;;;;;;15.87;11.00;;;15.40;70.30;;;;;;5027137;28;20186;-77
2023/10/31 02:59:44;;;;;;;16.10;11.97;;;15.40;70.10;;;;;;5028036;28;20193;-77
2023/10/31 03:02:11;;;;;;;17.07;11.20;;;15.40;70.10;;;;;;5028472;28;20797;-77
2023/10/31 03:04:36;;;;;;;17.23;11.10;;;15.40;70.40;;;;;;5030328;28;20265;-77
2023/10/31 03:07:02;;;;;;;17.87;11.23;;;15.40;70.40;;;;;;5027115;28;20253;-77
2023/10/31 03:09:28;;;;;;;15.80;10.97;;;15.50;70.50;;;;;;5012921;28;20189;-78
2023/10/31 03:11:53;;;;;;;18.30;11.07;;;15.70;70.60;;;;;;5028687;28;20202;-77
2023/10/31 03:14:19;;;;;;;16.73;10.33;;;15.60;70.40;;;;;;5027618;28;20219;-77
2023/10/31 03:16:45;;;;;;;14.97;9.83;;;15.60;70.40;;;;;;5031952;28;20174;-77
2023/10/31 03:19:10;;;;;;;18.93;10.70;;;15.70;70.40;;;;;;5013130;28;20179;-77
2023/10/31 03:21:36;;;;;;;17.50;10.80;;;15.70;70.50;;;;;;5027226;28;20505;-77
2023/10/31 03:24:01;;;;;;;13.47;10.57;;;15.70;70.20;;;;;;5030299;28;20206;-77
2023/10/31 03:26:27;;;;;;;14.57;10.07;;;15.70;70.30;;;;;;5031411;28;20183;-78
2023/10/31 03:28:57;;;;;;;14.83;10.37;;;15.70;70.60;;;;;;5034486;28;20174;-77
2023/10/31 03:31:23;;;;;;;16.43;10.20;;;15.70;70.50;;;;;;5035258;28;20175;-77
2023/10/31 03:33:49;;;;;;;11.63;9.67;;;15.70;70.50;;;;;;5031595;28;20248;-78
2023/10/31 03:36:15;;;;;;;11.83;9.90;;;15.90;70.80;;;;;;5031767;28;20182;-77
2023/10/31 03:38:40;;;;;;;14.07;9.67;;;15.80;70.40;;;;;;5030896;28;20182;-77
2023/10/31 03:41:06;;;;;;;15.93;9.97;;;15.80;70.40;;;;;;5014978;28;20648;-77
2023/10/31 03:43:32;;;;;;;14.73;9.77;;;15.90;70.50;;;;;;5016178;28;20248;-77
2023/10/31 03:45:58;;;;;;;14.13;9.30;;;15.90;70.50;;;;;;5016389;28;20537;-77
2023/10/31 03:48:23;;;;;;;12.20;8.90;;;15.90;70.50;;;;;;5032031;28;20265;-77
2023/10/31 03:50:50;;;;;;;17.63;10.43;;;15.90;70.50;;;;;;5015854;28;20581;-77
2023/10/31 03:53:15;;;;;;;12.63;9.40;;;16.00;70.50;;;;;;5032042;28;20183;-77
2023/10/31 03:55:41;;;;;;;12.90;10.07;;;15.90;70.40;;;;;;5034341;28;20620;-77
2023/10/31 03:58:07;;;;;;;13.33;9.20;;;15.90;70.50;;;;;;5031064;28;20270;-77
2023/10/31 04:00:33;;;;;;;12.83;8.90;;;16.00;70.60;;;;;;5016416;28;20512;-77
2023/10/31 04:02:58;;;;;;;15.97;10.10;;;16.00;70.40;;;;;;5013005;28;20216;-77
2023/10/31 04:05:24;;;;;;;16.67;8.67;;;16.00;70.40;;;;;;5012788;28;20191;-77
2023/10/31 04:07:49;;;;;;;11.40;8.30;;;16.00;70.40;;;;;;5016393;28;20166;-77
2023/10/31 04:10:17;;;;;;;16.57;8.37;;;16.00;70.40;;;;;;5015973;28;20185;-78
2023/10/31 04:12:43;;;;;;;15.93;9.17;;;16.00;70.40;;;;;;5032188;28;20214;-77
2023/10/31 04:15:09;;;;;;;12.43;8.13;;;16.00;70.40;;;;;;5030515;28;20209;-77
2023/10/31 04:17:35;;;;;;;11.40;8.23;;;16.00;70.60;;;;;;5030802;28;20208;-77
2023/10/31 04:20:01;;;;;;;14.87;8.13;;;16.10;70.60;;;;;;5032883;28;20166;-77
2023/10/31 04:22:27;;;;;;;13.50;7.80;;;16.00;70.50;;;;;;5015737;28;20273;-77
2023/10/31 04:24:52;;;;;;;13.17;7.87;;;16.00;70.30;;;;;;5029980;28;20266;-77
2023/10/31 04:27:18;;;;;;;12.43;8.10;;;16.00;70.50;;;;;;5015659;28;20187;-77
2023/10/31 04:29:44;;;;;;;11.27;8.07;;;16.00;70.50;;;;;;5031016;28;20183;-77
2023/10/31 04:32:10;;;;;;;9.63;7.77;;;16.00;70.70;;;;;;5032595;28;20257;-77
2023/10/31 04:34:35;;;;;;;10.03;6.90;;;16.10;70.50;;;;;;5031249;28;20767;-77
2023/10/31 04:37:01;;;;;;;13.03;7.63;;;16.10;70.50;;;;;;5029767;28;20186;-77
2023/10/31 04:39:27;;;;;;;13.00;7.20;;;16.20;70.40;;;;;;5015145;28;20223;-77
2023/10/31 04:41:52;;;;;;;11.93;6.87;;;16.20;70.40;;;;;;5015458;28;20252;-77
2023/10/31 04:44:18;;;;;;;9.57;7.10;;;16.20;70.40;;;;;;5031979;28;20324;-77
2023/10/31 04:46:44;;;;;;;11.17;6.33;;;16.20;70.30;;;;;;5034360;28;20615;-78
2023/10/31 04:49:09;;;;;;;10.00;7.10;;;16.30;70.80;;;;;;5015142;28;20189;-77
2023/10/31 04:51:36;;;;;;;9.90;6.23;;;16.30;70.20;;;;;;5032965;28;20186;-77
2023/10/31 04:54:02;;;;;;;10.30;6.63;;;16.30;70.20;;;;;;5030495;28;20248;-77
2023/10/31 04:56:28;;;;;;;8.90;6.13;;;16.30;69.90;;;;;;5030604;28;20656;-77
2023/10/31 04:58:53;;;;;;;12.43;6.20;;;16.30;70.00;;;;;;5016317;28;20174;-77
2023/10/31 05:01:19;;;;;;;9.60;6.43;;;16.40;69.80;;;;;;5028977;28;20193;-77
2023/10/31 05:03:45;;;;;;;7.70;5.40;;;16.30;69.80;;;;;;5012340;28;20238;-77
2023/10/31 05:06:11;;;;;;;10.93;5.77;;;16.30;69.90;;;;;;5030083;28;20194;-77
2023/10/31 05:08:36;;;;;;;12.17;6.07;;;16.40;70.00;;;;;;5029728;28;20198;-77
2023/10/31 05:11:02;;;;;;;9.23;5.67;;;16.40;69.80;;;;;;5033231;28;20174;-77
2023/10/31 05:13:28;;;;;;;10.10;5.80;;;16.50;69.80;;;;;;5014647;28;20309;-77
2023/10/31 05:15:54;;;;;;;8.93;5.53;;;16.50;69.60;;;;;;5030470;28;20190;-77
2023/10/31 05:18:20;;;;;;;9.43;5.80;;;16.50;69.30;;;;;;5015176;28;20186;-77
2023/10/31 05:20:45;;;;;;;9.73;5.90;;;16.50;69.20;;;;;;5031021;28;20182;-77
2023/10/31 05:23:11;;;;;;;12.07;5.17;;;16.50;69.20;;;;;;5013619;28;20218;-77
2023/10/31 05:25:37;;;;;;;8.67;5.17;;;16.60;69.20;;;;;;5032632;28;20194;-78
2023/10/31 05:28:03;;;;;;;8.37;5.37;;;16.60;69.10;;;;;;5024844;28;20175;-77
2023/10/31 05:30:29;;;;;;;9.07;4.80;;;16.70;68.80;;;;;;5010150;28;20648;-79
2023/10/31 05:32:55;;;;;;;9.10;5.13;;;16.70;68.70;;;;;;5011571;28;20182;-78
2023/10/31 05:35:21;;;;;;;7.33;5.27;;;16.70;68.20;;;;;;5030142;28;20181;-78
2023/10/31 05:37:47;;;;;;;7.77;4.93;;;16.80;68.50;;;;;;5031687;28;20624;-78
2023/10/31 05:40:13;;;;;;;8.50;4.93;;;16.80;68.30;;;;;;5031460;28;20182;-78
2023/10/31 05:42:39;;;;;;;12.63;5.70;;;16.80;68.20;;;;;;5029365;28;20206;-78
2023/10/31 05:45:05;;;;;;;7.70;5.30;;;16.80;68.00;;;;;;5029867;28;20205;-78
2023/10/31 05:47:30;;;;;;;12.43;5.33;;;16.90;67.80;;;;;;5029464;28;20225;-79
2023/10/31 05:49:57;;;;;;;10.30;5.17;;;16.90;67.70;;;;;;5014209;28;20174;-81
2023/10/31 05:52:22;;;;;;;10.50;5.70;;;16.90;67.90;;;;;;5029680;28;20197;-79
2023/10/31 05:54:48;;;;;;;10.20;5.40;;;16.90;67.70;;;;;;5030062;28;20182;-78
2023/10/31 05:57:14;;;;;;;9.97;4.47;;;16.90;67.80;;;;;;5014536;28;20183;-78
2023/10/31 05:59:39;;;;;;;11.13;5.90;;;16.90;67.60;;;;;;5030724;28;20174;-78
2023/10/31 06:02:05;;;;;;;9.57;5.43;;;17.00;67.70;;;;;;5028495;28;20180;-78
2023/10/31 06:04:30;;;;;;;11.67;5.73;;;17.00;67.10;;;;;;5028919;28;20256;-78
2023/10/31 06:06:56;;;;;;;13.80;5.67;;;17.00;67.00;;;;;;5030821;28;20181;-78
2023/10/31 06:09:21;;;;;;;10.80;5.67;;;17.00;67.30;;;;;;5028957;28;20821;-78
2023/10/31 06:11:47;;;;;;;10.90;5.50;;;17.00;67.40;;;;;;5028146;28;20179;-79
2023/10/31 06:14:13;;;;;;;13.17;5.53;;;17.10;67.10;;;;;;5031833;28;20222;-79
2023/10/31 06:16:42;;;;;;;11.73;5.67;;;17.10;67.00;;;;;;5013229;28;20181;-78
2023/10/31 06:19:09;;;;;;;16.00;5.30;;;17.10;66.50;;;;;;5028336;28;20265;-78
2023/10/31 06:21:34;;;;;;;11.10;5.20;;;17.10;66.70;;;;;;5014382;28;20241;-78
2023/10/31 06:24:00;;;;;;;11.07;5.60;;;17.10;66.60;;;;;;5030149;28;20198;-79
2023/10/31 06:26:25;;;;;;;11.70;5.67;;;17.10;66.70;;;;;;5031038;28;20178;-79
2023/10/31 06:28:51;;;;;;;13.13;5.67;;;17.20;66.90;;;;;;5030485;28;20643;-79
2023/10/31 06:31:16;;;;;;;13.33;5.37;;;17.20;66.90;;;;;;5013586;28;20526;-80
2023/10/31 06:33:42;;;;;;;11.47;5.20;;;17.20;67.00;;;;;;5013445;28;20193;-79
2023/10/31 06:36:08;;;;;;;7.87;5.13;;;17.20;66.90;;;;;;5017105;28;20627;-79
2023/10/31 06:38:33;;;;;;;12.97;5.30;;;17.20;67.00;;;;;;5031553;28;20178;-79
2023/10/31 06:40:59;;;;;;;13.13;5.37;;;17.30;67.20;;;;;;5025528;28;20217;-79
2023/10/31 06:43:25;;;;;;;11.17;4.67;;;17.30;66.80;;;;;;5020707;28;20231;-79
2023/10/31 06:45:51;;;;;;;12.77;5.83;;;17.30;66.60;;;;;;5027959;28;20190;-79
2023/10/31 06:48:16;;;;;;;13.73;5.80;;;17.40;66.80;;;;;;5027580;28;20185;-80
2023/10/31 06:50:42;;;;;;;10.13;5.40;;;17.40;66.60;;;;;;5011209;28;20761;-79
2023/10/31 06:53:08;;;;;;;11.10;5.00;;;17.30;66.50;;;;;;5030468;28;20189;-78
2023/10/31 06:55:34;;;;;;;8.73;4.80;;;17.40;66.70;;;;;;5029008;28;20206;-79
2023/10/31 06:57:59;;;;;;;10.17;5.43;;;17.30;66.60;;;;;;5013147;28;20532;-79
2023/10/31 07:00:25;;;;;;;8.80;5.37;;;17.40;66.50;;;;;;5013504;28;20178;-79
2023/10/31 07:02:50;;;;;;;10.90;5.07;;;17.40;66.50;;;;;;5010804;28;20236;-79
2023/10/31 07:05:16;;;;;;;10.83;5.20;;;17.40;66.80;;;;;;5031768;28;20253;-79
2023/10/31 07:07:42;;;;;;;7.50;4.77;;;17.50;66.80;;;;;;5029303;28;20572;-79
2023/10/31 07:10:08;;;;;;;8.97;5.40;;;17.50;66.70;;;;;;5027693;28;20189;-79
2023/10/31 07:12:34;;;;;;;8.50;5.30;;;17.50;66.60;;;;;;5028693;28;20218;-79
2023/10/31 07:14:59;;;;;;;11.90;5.20;;;17.50;66.60;;;;;;5029774;28;20186;-79
2023/10/31 07:17:25;;;;;;;9.57;5.27;;;17.50;66.20;;;;;;5030742;28;20617;-79
2023/10/31 07:19:51;;;;;;;10.30;5.67;;;17.50;66.10;;;;;;5013871;28;20213;-79
2023/10/31 07:22:17;;;;;;;10.17;4.67;;;17.50;66.20;;;;;;5027581;28;20209;-79
2023/10/31 07:24:42;;;;;;;11.50;5.33;;;17.50;66.10;;;;;;5029186;28;20257;-79
2023/10/31 07:27:09;;;;;;;10.43;5.10;;;17.60;66.20;;;;;;5012889;28;20185;-79
2023/10/31 07:29:34;;;;;;;7.40;4.97;;;17.60;66.70;;;;;;5011863;28;20170;-79
2023/10/31 07:32:00;;;;;;;7.80;4.90;;;17.60;65.80;;;;;;5030929;28;20521;-79
2023/10/31 07:34:26;;;;;;;10.50;5.13;;;17.60;65.60;;;;;;5013179;28;20225;-79
2023/10/31 07:36:52;;;;;;;10.57;5.00;;;17.70;65.50;;;;;;5012697;28;20187;-79
2023/10/31 07:39:17;;;;;;;9.07;4.60;;;17.60;65.40;;;;;;5009922;28;20190;-79
2023/10/31 07:41:43;;;;;;;6.67;4.90;;;17.60;65.40;;;;;;5011799;28;20166;-79
2023/10/31 07:44:09;;;;;;;10.37;5.03;;;17.70;65.40;;;;;;5031533;28;20234;-79
2023/10/31 07:46:34;;;;;;;13.10;5.47;;;17.70;64.90;;;;;;5012139;28;20249;-79
2023/10/31 07:49:00;;;;;;;9.23;5.07;;;17.60;64.70;;;;;;5011650;28;20260;-79
2023/10/31 07:51:25;;;;;;;8.83;5.03;;;17.70;65.00;;;;;;5012836;28;20182;-79
2023/10/31 07:53:51;;;;;;;8.77;5.30;;;17.70;65.00;;;;;;5029019;28;20181;-79
2023/10/31 07:56:22;;;;;;;12.10;5.47;;;17.70;65.00;;;;;;5030463;28;20257;-79
2023/10/31 07:58:48;;;;;;;12.33;5.20;;;17.70;65.10;;;;;;5012716;28;20194;-79
2023/10/31 08:01:14;;;;;;;8.57;5.00;;;17.70;65.20;;;;;;5027553;28;20225;-79
2023/10/31 08:03:39;;;;;;;12.10;5.10;;;17.70;65.40;;;;;;5011126;28;20194;-79
2023/10/31 08:06:07;;;;;;;8.03;4.77;;;17.70;65.10;;;;;;5029841;28;20194;-79
2023/10/31 08:08:33;;;;;;;7.07;5.10;;;17.70;65.00;;;;;;5030073;28;20175;-79
2023/10/31 08:10:59;;;;;;;8.30;4.80;;;17.70;65.00;;;;;;5015400;28;20666;-79
2023/10/31 08:13:25;;;;;;;11.03;4.40;;;17.80;65.20;;;;;;5016156;28;20250;-79
2023/10/31 08:15:50;;;;;;;9.57;4.97;;;17.80;65.10;;;;;;5030482;28;20952;-79
2023/10/31 08:18:16;;;;;;;12.17;4.90;;;17.90;64.70;;;;;;5031124;28;20262;-79
2023/10/31 08:20:43;;;;;;;8.83;5.30;;;17.80;64.20;;;;;;5013653;28;20171;-79
2023/10/31 08:23:09;;;;;;;8.70;5.00;;;17.80;64.30;;;;;;5032335;28;20190;-79
2023/10/31 08:25:34;;;;;;;8.37;5.47;;;17.90;64.70;;;;;;5029299;28;20593;-79
2023/10/31 08:28:00;;;;;;;6.60;4.27;;;17.90;64.40;;;;;;5028404;28;20178;-79
2023/10/31 08:30:25;;;;;;;8.40;4.43;;;17.90;64.00;;;;;;5014230;28;20183;-79
2023/10/31 08:32:51;;;;;;;10.83;5.10;;;18.00;63.80;;;;;;5031332;28;20183;-79
2023/10/31 08:35:17;;;;;;;7.53;3.97;;;18.00;63.30;;;;;;5032139;28;20207;-79
2023/10/31 08:37:42;;;;;;;5.00;3.87;;;18.10;63.30;;;;;;5032136;28;20659;-79
2023/10/31 08:40:08;;;;;;;6.10;3.83;;;18.20;63.00;;;;;;5015555;28;20538;-79
2023/10/31 08:42:41;;;;;;;9.13;3.90;;;18.20;62.60;;;;;;5031697;28;20675;-79
2023/10/31 08:45:07;;;;;;;7.30;3.40;;;18.20;62.10;;;;;;5029921;28;20187;-79
2023/10/31 08:47:33;;;;;;;5.93;4.03;;;18.30;62.30;;;;;;5033622;28;20179;-79
2023/10/31 08:49:59;;;;;;;8.50;3.60;;;18.30;62.20;;;;;;5030984;28;20620;-79
2023/10/31 08:52:24;;;;;;;5.30;3.57;;;18.40;62.50;;;;;;5015315;28;20216;-79
2023/10/31 08:54:50;;;;;;;9.03;4.30;;;18.40;63.30;;;;;;5014687;28;20675;-79
2023/10/31 08:57:15;;;;;;;7.90;3.97;;;18.50;62.30;;;;;;5014057;28;20220;-79
2023/10/31 08:59:41;;;;;;;8.47;3.60;;;18.50;61.50;;;;;;5032611;28;20166;-79
2023/10/31 09:02:07;;;;;;;10.70;4.63;;;18.50;61.50;;;;;;5031451;28;20600;-79
2023/10/31 09:04:32;;;;;;;8.10;3.83;;;18.60;61.50;;;;;;5015102;28;20210;-79
2023/10/31 09:06:58;;;;;;;8.20;3.87;;;18.60;60.80;;;;;;5032698;28;20193;-79
2023/10/31 09:09:23;;;;;;;9.27;4.13;;;18.50;60.40;;;;;;5029771;28;20175;-77
2023/10/31 09:11:49;;;;;;;5.80;3.67;;;18.60;60.80;;;;;;5032489;28;20170;-77
2023/10/31 09:14:15;;;;;;;7.30;3.97;;;18.60;60.60;;;;;;5031114;28;20679;-77
2023/10/31 09:16:40;;;;;;;8.93;4.10;;;18.60;60.20;;;;;;5031544;28;20205;-77
2023/10/31 09:19:06;;;;;;;7.63;3.57;;;18.60;59.90;;;;;;5011519;28;20232;-77
2023/10/31 09:21:31;;;;;;;12.90;3.77;;;18.60;60.20;;;;;;5031643;28;20186;-78
2023/10/31 09:23:57;;;;;;;8.83;4.47;;;18.60;60.10;;;;;;5031083;28;20208;-77
2023/10/31 09:26:23;;;;;;;9.13;4.37;;;18.60;59.80;;;;;;5014760;28;20580;-78
2023/10/31 09:28:51;;;;;;;6.80;4.10;;;18.60;59.70;;;;;;5028773;28;20217;-78
2023/10/31 09:31:19;;;;;;;6.43;3.83;;;18.70;59.80;;;;;;5029652;28;20201;-78
2023/10/31 09:33:46;;;;;;;10.23;4.10;;;18.60;59.60;;;;;;5012535;28;20182;-78
2023/10/31 09:36:13;;;;;;;7.13;4.53;;;18.70;59.70;;;;;;5029315;28;20183;-78
2023/10/31 09:38:39;;;;;;;6.77;4.20;;;18.70;59.80;;;;;;5032047;28;20171;-77
2023/10/31 09:41:05;;;;;;;10.23;4.33;;;18.80;59.90;;;;;;5030004;28;20197;-77
2023/10/31 09:43:31;;;;;;;7.40;4.57;;;18.80;59.80;;;;;;5030737;28;20217;-78
2023/10/31 09:45:58;;;;;;;13.60;5.20;;;18.80;59.70;;;;;;5014390;28;20585;-77
2023/10/31 09:48:23;;;;;;;9.87;4.30;;;18.80;59.20;;;;;;5014700;28;20591;-80
2023/10/31 09:50:49;;;;;;;7.37;4.63;;;18.90;59.40;;;;;;5031328;28;20253;-80
2023/10/31 09:53:18;;;;;;;11.10;4.80;;;18.90;59.60;;;;;;5014473;28;20213;-80
2023/10/31 09:55:45;;;;;;;8.10;4.70;;;18.90;59.50;;;;;;5028913;28;20499;-80
2023/10/31 09:58:11;;;;;;;8.63;4.17;;;18.90;59.40;;;;;;5027775;28;20265;-80
2023/10/31 10:00:37;;;;;;;8.30;4.07;;;19.00;59.60;;;;;;5031053;28;20250;-80
2023/10/31 10:03:03;;;;;;;7.60;4.33;;;19.00;59.40;;;;;;5011792;28;20215;-79
2023/10/31 10:05:32;;;;;;;6.67;4.53;;;19.00;59.10;;;;;;5032028;28;20189;-80
2023/10/31 10:07:58;;;;;;;7.67;4.57;;;19.10;59.10;;;;;;5028971;28;20627;-80
2023/10/31 10:10:24;;;;;;;8.97;5.13;;;19.10;59.20;;;;;;5014032;28;20206;-80
2023/10/31 10:12:52;;;;;;;7.03;4.37;;;19.10;59.70;;;;;;5012957;28;20230;-79
2023/10/31 10:15:17;;;;;;;8.20;4.23;;;19.10;59.40;;;;;;5013216;28;20182;-80
2023/10/31 10:17:50;;;;;;;9.60;4.23;;;19.20;59.50;;;;;;5014433;28;20253;-80
2023/10/31 10:20:15;;;;;;;7.57;4.50;;;19.30;59.50;;;;;;5028797;28;20175;-79
2023/10/31 10:22:42;;;;;;;9.83;5.00;;;19.40;59.30;;;;;;5027643;28;20682;-77
2023/10/31 10:25:11;;;;;;;7.47;4.13;;;19.40;59.20;;;;;;5012944;28;20185;-78
2023/10/31 10:27:37;;;;;;;6.97;4.33;;;19.50;59.20;;;;;;5010848;28;20178;-78
2023/10/31 10:30:04;;;;;;;13.10;5.10;;;19.50;59.10;;;;;;5012572;28;20674;-78
2023/10/31 10:32:30;;;;;;;5.93;3.80;;;19.50;59.00;;;;;;5014427;28;20178;-78
2023/10/31 10:34:55;;;;;;;7.90;4.07;;;19.60;59.00;;;;;;5028385;28;20174;-78
2023/10/31 10:37:21;;;;;;;7.13;4.37;;;19.60;59.00;;;;;;5013179;28;20709;-78
2023/10/31 10:39:49;;;;;;;6.80;3.77;;;19.60;59.00;;;;;;5030029;28;20185;-78
2023/10/31 10:42:18;;;;;;;14.23;4.43;;;19.70;58.70;;;;;;5028425;28;20174;-78
2023/10/31 10:44:44;;;;;;;8.77;3.60;;;19.70;58.90;;;;;;5014681;28;20178;-78
2023/10/31 10:47:12;;;;;;;13.50;3.47;;;19.80;58.90;;;;;;5013662;28;20186;-78
2023/10/31 10:49:42;;;;;;;8.07;4.07;;;19.80;58.40;;;;;;5027838;28;20174;-78
2023/10/31 10:52:20;;;;;;;6.17;3.57;;;19.80;58.40;;;;;;5013202;28;20229;-78
2023/10/31 10:54:51;;;;;;;6.07;3.47;;;19.80;58.50;;;;;;5013524;28;20189;-78
2023/10/31 10:57:47;;;;;;;7.97;3.43;;;19.80;58.70;;;;;;5012595;28;20178;-78
2023/10/31 11:00:14;;;;;;;8.13;3.40;;;19.80;58.60;;;;;;5027818;28;20189;-78
2023/10/31 11:02:42;;;;;;;6.93;3.17;;;19.90;58.40;;;;;;5031721;28;20581;-78
2023/10/31 11:05:08;;;;;;;7.43;3.30;;;19.90;58.40;;;;;;5027510;28;20194;-78
2023/10/31 11:07:38;;;;;;;4.83;3.07;;;19.90;58.30;;;;;;5012652;28;20182;-78
2023/10/31 11:10:05;;;;;;;7.40;3.20;;;20.00;58.50;;;;;;5030001;28;20612;-78
2023/10/31 11:12:32;;;;;;;5.60;3.00;;;20.10;58.40;;;;;;5029382;28;20252;-79
2023/10/31 11:15:00;;;;;;;3.20;2.90;;;20.10;58.30;;;;;;5013202;28;20624;-78
2023/10/31 11:17:29;;;;;;;6.33;3.13;;;20.00;58.20;;;;;;5013931;28;20175;-78
2023/10/31 11:19:56;;;;;;;9.70;3.43;;;20.00;58.30;;;;;;5012039;28;20189;-78
2023/10/31 11:22:22;;;;;;;6.00;2.87;;;20.00;58.50;;;;;;5029223;28;20178;-78
2023/10/31 11:24:51;;;;;;;5.97;2.90;;;20.00;58.50;;;;;;5027305;28;20190;-78
2023/10/31 11:27:17;;;;;;;15.53;3.83;;;20.10;58.80;;;;;;5028411;28;20942;-78
2023/10/31 11:29:44;;;;;;;4.30;2.83;;;20.10;58.60;;;;;;5031424;28;20206;-78
2023/10/31 11:32:10;;;;;;;6.20;3.27;;;20.10;58.50;;;;;;5026728;28;20187;-78
2023/10/31 11:34:39;;;;;;;3.50;2.87;;;20.10;58.60;;;;;;5027732;28;20190;-78
2023/10/31 11:37:27;;;;;;;4.93;2.97;;;20.00;58.60;;;;;;5027174;28;20183;-78
2023/10/31 11:40:18;;;;;;;7.27;3.23;;;20.00;58.50;;;;;;5027623;28;20217;-78
2023/10/31 11:42:52;;;;;;;9.97;3.63;;;20.00;58.70;;;;;;5015083;28;20308;-78
2023/10/31 11:45:47;;;;;;;7.17;3.77;;;20.00;58.70;;;;;;5029064;28;20194;-78
2023/10/31 11:48:13;;;;;;;6.57;3.33;;;19.90;58.90;;;;;;5011369;28;20579;-78
2023/10/31 11:50:39;;;;;;;9.70;3.00;;;19.90;58.90;;;;;;5033801;28;20170;-78
2023/10/31 11:53:13;;;;;;;5.67;3.20;;;20.00;59.20;;;;;;5015807;28;20281;-79
2023/10/31 11:55:43;;;;;;;6.70;3.00;;;20.00;59.20;;;;;;5033624;28;20244;-78
2023/10/31 11:58:25;;;;;;;5.30;3.37;;;20.00;59.20;;;;;;5031928;28;20182;-78
2023/10/31 12:00:53;;;;;;;8.13;3.27;;;20.10;59.50;;;;;;5031705;28;20183;-78
2023/10/31 12:03:21;;;;;;;5.47;2.70;;;20.20;59.40;;;;;;5014372;28;20202;-78
2023/10/31 12:06:00;;;;;;;6.87;2.60;;;20.20;59.20;;;;;;5035067;28;20497;-78
2023/10/31 12:08:31;;;;;;;3.10;2.60;;;20.30;59.30;;;;;;5032198;28;20189;-78
2023/10/31 12:11:11;;;;;;;5.03;2.80;;;20.30;59.30;;;;;;5031092;28;20190;-78
2023/10/31 12:13:52;;;;;;;9.03;2.70;;;20.30;59.30;;;;;;5030619;28;20234;-78
2023/10/31 12:16:18;;;;;;;3.10;2.53;;;20.30;59.40;;;;;;5030842;28;20186;-78
2023/10/31 12:18:43;;;;;;;4.73;2.63;;;20.40;59.40;;;;;;5015523;28;20497;-78
2023/10/31 12:21:11;;;;;;;4.63;2.23;;;20.30;59.30;;;;;;5032898;28;20623;-78
2023/10/31 12:23:37;;;;;;;4.10;2.50;;;20.30;59.30;;;;;;5032645;28;20604;-78
2023/10/31 12:26:03;;;;;;;3.60;2.27;;;20.40;59.30;;;;;;5031680;28;20192;-78
2023/10/31 12:28:29;;;;;;;4.23;2.10;;;20.40;59.20;;;;;;5016147;28;20178;-78
2023/10/31 12:30:56;;;;;;;4.43;2.03;;;20.30;59.20;;;;;;5016162;28;20518;-78
2023/10/31 12:33:25;;;;;;;2.40;2.07;;;20.20;59.20;;;;;;5014566;28;20190;-78
2023/10/31 12:35:53;;;;;;;4.23;2.23;;;20.20;59.00;;;;;;5034342;28;20489;-78